Myra Eckstein — WDF9473 — position and weather

sailwx.info

Track history (hours):
 
Tides and Currents Weather Stations Pressure Air Temp Water Temp Dewpoint Dewpoint Depression Visibility Wind Speed Wind Dir Waves Ship Positions

Myra Eckstein

Owner: Marquette Transportation Co. LLC, Paducah, KY. More information available from US FCC via Universal Licensing System and Coast Guard Vessel Documentation Center.

Last reported at 2015-Feb-16 07:05 UTC. Time now 2015-Mar-27 17:19 UTC.
Position N 30°04' W 090°51'.
Warning: this ship's position is 39 days out of date.

Length 47 m; draft 3.5 m.

Type: Towing. MMSI: 367505510.

Date/timePositionNaut miles runAvg speedWind from/ knotsBaromVisibWave heightAir tempDewpointWater temp
2015-Feb-16 07:05N 30°04' W 090°51'0 0.0
2015-Feb-16 06:25N 30°04' W 090°51'0 0.0
2015-Feb-16 04:33N 30°04' W 090°51'0 0.0
2015-Feb-16 03:31N 30°04' W 090°51'0 0.0
2015-Feb-16 02:19N 30°04' W 090°51'0 0.0
2015-Feb-16 01:31N 30°04' W 090°51'0 0.0
2015-Feb-16 00:33N 30°04' W 090°51'0 0.0
2015-Feb-15 14:32N 30°03' W 090°51'0 0.0
2015-Feb-15 13:33N 30°03' W 090°51'0 0.0
2015-Feb-15 12:33N 30°03' W 090°51'0 0.0
2015-Feb-15 11:32N 30°03' W 090°51'0 0.0
2015-Feb-15 10:33N 30°03' W 090°51'0 0.0
2015-Feb-15 09:33N 30°03' W 090°51'0 0.0
2015-Feb-15 08:04N 30°03' W 090°51'0 0.0
2015-Feb-15 07:18N 30°03' W 090°51'0 0.0
2015-Feb-15 05:33N 30°03' W 090°51'0 0.0
2015-Feb-15 02:31N 30°03' W 090°51'21 1.0
2015-Feb-14 06:04N 29°60' W 090°27'7 0.1
2015-Feb-12 08:28N 30°03' W 090°34'0 0.1
2015-Feb-12 07:29N 30°03' W 090°34'5 3.9
2015-Feb-12 06:16N 30°03' W 090°40'7 4.0
2015-Feb-12 04:33N 30°00' W 090°47'0 0.0
2015-Feb-12 03:26N 30°00' W 090°47'  
Track history (hours):
 
Tides and Currents Weather Stations Pressure Air Temp Water Temp Dewpoint Dewpoint Depression Visibility Wind Speed Wind Dir Waves Ship Positions

Myra Eckstein

Owner: Marquette Transportation Co. LLC, Paducah, KY. More information available from US FCC via Universal Licensing System and Coast Guard Vessel Documentation Center.

Last reported at 2015-Feb-16 07:05 UTC. Time now 2015-Mar-27 17:19 UTC.
Position N 30°04' W 090°51'.
Warning: this ship's position is 39 days out of date.

Length 47 m; draft 3.5 m.

Type: Towing. MMSI: 367505510.

Date/timePositionNaut miles runAvg speedWind from/ knotsBaromVisibWave heightAir tempDewpointWater temp
2015-Feb-16 07:05N 30°04' W 090°51'0 0.0
2015-Feb-16 06:25N 30°04' W 090°51'0 0.0
2015-Feb-16 04:33N 30°04' W 090°51'0 0.0
2015-Feb-16 03:31N 30°04' W 090°51'0 0.0
2015-Feb-16 02:19N 30°04' W 090°51'0 0.0
2015-Feb-16 01:31N 30°04' W 090°51'0 0.0
2015-Feb-16 00:33N 30°04' W 090°51'0 0.0
2015-Feb-15 14:32N 30°03' W 090°51'0 0.0
2015-Feb-15 13:33N 30°03' W 090°51'0 0.0
2015-Feb-15 12:33N 30°03' W 090°51'0 0.0
2015-Feb-15 11:32N 30°03' W 090°51'0 0.0
2015-Feb-15 10:33N 30°03' W 090°51'0 0.0
2015-Feb-15 09:33N 30°03' W 090°51'0 0.0
2015-Feb-15 08:04N 30°03' W 090°51'0 0.0
2015-Feb-15 07:18N 30°03' W 090°51'0 0.0
2015-Feb-15 05:33N 30°03' W 090°51'0 0.0
2015-Feb-15 02:31N 30°03' W 090°51'21 1.0
2015-Feb-14 06:04N 29°60' W 090°27'7 0.1
2015-Feb-12 08:28N 30°03' W 090°34'0 0.1
2015-Feb-12 07:29N 30°03' W 090°34'5 3.9
2015-Feb-12 06:16N 30°03' W 090°40'7 4.0
2015-Feb-12 04:33N 30°00' W 090°47'0 0.0
2015-Feb-12 03:26N 30°00' W 090°47'  

Dump ship's entire track history